Westerville, Iowa
Current Conditions -  °F | °C
As of 10:53 PM on Thursday 30 Oct 2014 (Local Time) from KLWD Reporting Station
Light Rain Light Rain  
Wind Chill: 50°   Ceiling: 7500
Heat Index: 50°   Visibility: 10mi
Dew Point: 38°   Wind: 16mph
Humidity: 63%   Direction: 360°N
Pressure: 30.18"   Gusts: 28mph
Location:  40.8106°N, 93.9578°W
Report Text: KLWD 310353Z AUTO 36014G24KT 10SM -RA OVC075 10/03 A3018 RMK AO2 SLP224 P0000 T01000033
Loading
Personal Weather Stations






























Interactive Weather Map
Tropical Storm Tracking
New forecast layout! Learn more

10-Day Weather Forecast

Advertisements
Track Severe Weather on mobile